Time;durP1;ratioP1;P1;durP2;ratioP2;P2;SDS_P1;SDS_P2;PMS_P1;PMS_P2;Temp;Humidity;BMP_temperature;BMP_pressure;BME280_temperature;BME280_humidity;BME280_pressure;Samples;Min_cycle;Max_cycle;Signal;HPM_P1;HPM_P2
2024/04/12 00:00:21;;;;;;;1.73;0.90;;;;;20.00;102096.00;;;;2212897;26;20307;-57
2024/04/12 00:01:22;;;;;;;1.90;0.90;;;;;20.00;102115.00;;;;2207617;26;20247;-58
2024/04/12 00:02:26;;;;;;;1.80;0.60;;;;;20.00;102089.00;;;;2217751;26;21164;-57
2024/04/12 00:03:26;;;;;;;2.20;0.70;;;;;20.00;102087.00;;;;2217658;26;20291;-56
2024/04/12 00:04:26;;;;;;;1.80;0.60;;;;;20.00;102088.00;;;;2228262;26;20254;-56
2024/04/12 00:05:27;;;;;;;1.90;0.80;;;;;20.00;102093.00;;;;2218108;26;20263;-59
2024/04/12 00:06:30;;;;;;;1.77;0.80;;;;;20.00;102087.00;;;;2206637;26;20299;-56
2024/04/12 00:07:35;;;;;;;1.73;0.80;;;;;20.00;102085.00;;;;2217593;26;20751;-56
2024/04/12 00:08:35;;;;;;;1.60;0.70;;;;;20.00;102091.00;;;;2222188;26;20290;-56
2024/04/12 00:09:35;;;;;;;1.90;0.83;;;;;20.00;102087.00;;;;2228217;26;20251;-55
2024/04/12 00:10:37;;;;;;;1.70;0.80;;;;;20.00;102080.00;;;;2217245;26;20297;-55
2024/04/12 00:11:40;;;;;;;2.22;0.70;;;;;20.00;102092.00;;;;2206859;26;20343;-56
2024/04/12 00:12:41;;;;;;;1.80;0.80;;;;;20.00;102076.00;;;;2215448;26;20267;-56
2024/04/12 00:13:41;;;;;;;2.63;0.80;;;;;20.00;102087.00;;;;2222841;26;20705;-57
2024/04/12 00:14:43;;;;;;;1.73;0.50;;;;;20.00;102105.00;;;;2222030;26;20274;-55
2024/04/12 00:15:44;;;;;;;2.03;0.90;;;;;20.00;102080.00;;;;2217795;26;20256;-56
2024/04/12 00:16:49;;;;;;;4.43;1.00;;;;;20.00;102074.00;;;;2208767;26;20364;-56
2024/04/12 00:17:55;;;;;;;1.90;0.80;;;;;20.00;102078.00;;;;2232167;26;21252;-55
2024/04/12 00:19:07;;;;;;;2.28;0.80;;;;;20.00;102073.00;;;;2220323;26;20406;-56
2024/04/12 00:20:10;;;;;;;1.88;0.60;;;;;20.00;102079.00;;;;2225003;26;20251;-57
2024/04/12 00:21:11;;;;;;;1.95;0.90;;;;;20.00;102070.00;;;;2206439;26;20255;-57
2024/04/12 00:22:14;;;;;;;2.00;0.80;;;;;20.00;102068.00;;;;2228993;26;20250;-57
2024/04/12 00:23:14;;;;;;;2.88;0.98;;;;;20.00;102073.00;;;;2222889;26;20481;-59
2024/04/12 00:24:16;;;;;;;1.93;0.80;;;;;20.00;102070.00;;;;2216418;26;20294;-56
2024/04/12 00:25:17;;;;;;;2.13;0.85;;;;;20.00;102068.00;;;;2217808;26;20506;-54
2024/04/12 00:26:17;;;;;;;1.83;0.60;;;;;20.00;102074.00;;;;2208881;26;20331;-59
2024/04/12 00:27:21;;;;;;;1.80;0.70;;;;;20.00;102070.00;;;;2221314;26;20290;-56
2024/04/12 00:28:25;;;;;;;1.85;0.70;;;;;20.00;102071.00;;;;2215004;26;20251;-57
2024/04/12 00:29:25;;;;;;;2.00;0.85;;;;;20.00;102067.00;;;;2229537;26;20592;-58
2024/04/12 00:30:38;;;;;;;1.67;0.80;;;;;20.00;102058.00;;;;2217585;26;20332;-60
2024/04/12 00:31:42;;;;;;;2.10;0.90;;;;;20.00;102069.00;;;;2211126;26;20313;-57
2024/04/12 00:32:44;;;;;;;2.80;0.90;;;;;20.00;102065.00;;;;2217585;26;20255;-55
2024/04/12 00:33:48;;;;;;;3.05;0.80;;;;;20.00;102057.00;;;;2225633;26;20322;-58
2024/04/12 00:34:51;;;;;;;2.90;0.90;;;;;20.00;101964.00;;;;2227776;26;20337;-55
2024/04/12 00:35:54;;;;;;;2.35;0.60;;;;;19.90;102067.00;;;;2218004;26;20246;-56
2024/04/12 00:37:06;;;;;;;2.13;0.85;;;;;20.00;102067.00;;;;2218913;26;20298;-57
2024/04/12 00:38:09;;;;;;;1.50;0.60;;;;;20.00;102071.00;;;;2220289;26;20255;-57
2024/04/12 00:39:35;;;;;;;2.00;0.80;;;;;20.00;102074.00;;;;2217448;26;20252;-59
2024/04/12 00:40:33;;;;;;;1.50;0.65;;;;;20.00;102076.00;;;;2218886;26;20255;-59
2024/04/12 00:41:36;;;;;;;2.55;1.00;;;;;19.90;102074.00;;;;2219734;26;20308;-57
2024/04/12 00:42:36;;;;;;;1.65;0.73;;;;;20.00;102072.00;;;;2221255;26;20283;-58
2024/04/12 00:43:36;;;;;;;2.03;0.80;;;;;19.90;102076.00;;;;2231038;26;20364;-58
2024/04/12 00:44:40;;;;;;;2.47;1.10;;;;;20.00;102072.00;;;;2225120;26;20290;-56
2024/04/12 00:45:45;;;;;;;1.90;0.70;;;;;20.00;102072.00;;;;2219526;26;20262;-58
2024/04/12 00:46:45;;;;;;;2.25;0.65;;;;;20.00;102072.00;;;;2208606;26;20267;-58
2024/04/12 00:47:47;;;;;;;2.00;0.90;;;;;20.00;102066.00;;;;2223381;26;20253;-56
2024/04/12 00:48:47;;;;;;;1.80;0.75;;;;;20.00;102076.00;;;;2229959;26;21224;-58
2024/04/12 00:49:51;;;;;;;2.10;0.93;;;;;20.00;102066.00;;;;2203594;26;20328;-55
2024/04/12 00:50:51;;;;;;;1.70;0.80;;;;;20.00;102063.00;;;;2219700;26;20254;-58
2024/04/12 00:51:51;;;;;;;1.77;0.83;;;;;20.00;102053.00;;;;2230738;26;20322;-59
2024/04/12 00:52:53;;;;;;;1.87;0.87;;;;;20.00;102064.00;;;;2217957;26;20271;-59
2024/04/12 00:53:57;;;;;;;1.88;0.70;;;;;20.00;102066.00;;;;2218264;26;20508;-55
2024/04/12 00:55:03;;;;;;;2.10;0.80;;;;;20.00;102069.00;;;;2230601;26;20293;-56
2024/04/12 00:56:03;;;;;;;2.80;0.98;;;;;20.00;102064.00;;;;2211752;26;20255;-58
2024/04/12 00:57:04;;;;;;;2.53;0.80;;;;;20.00;102072.00;;;;2217821;26;20662;-57
2024/04/12 00:58:09;;;;;;;2.33;0.80;;;;;19.90;102060.00;;;;2203424;26;20362;-55
2024/04/12 00:59:09;;;;;;;2.40;1.05;;;;;19.90;102044.00;;;;2205964;26;20300;-58
2024/04/12 01:00:19;;;;;;;2.40;0.90;;;;;20.00;102058.00;;;;2204914;26;20319;-57
2024/04/12 01:01:20;;;;;;;2.08;0.95;;;;;20.00;102065.00;;;;2206822;26;20751;-57
2024/04/12 01:02:24;;;;;;;2.50;0.60;;;;;20.00;102054.00;;;;2217821;26;20248;-55
2024/04/12 01:03:24;;;;;;;1.85;0.82;;;;;20.00;102063.00;;;;2228755;26;20355;-59
2024/04/12 01:04:25;;;;;;;3.57;1.00;;;;;20.00;102049.00;;;;2219504;26;20333;-57
2024/04/12 01:05:28;;;;;;;1.52;0.60;;;;;20.00;102058.00;;;;2222768;26;20740;-57
2024/04/12 01:06:32;;;;;;;2.35;0.70;;;;;20.00;102047.00;;;;2221199;26;20262;-57
2024/04/12 01:07:36;;;;;;;2.97;0.95;;;;;20.00;102057.00;;;;2219637;26;20263;-58
2024/04/12 01:08:37;;;;;;;1.88;0.65;;;;;20.00;102047.00;;;;2230604;26;20372;-58
2024/04/12 01:09:37;;;;;;;1.90;0.80;;;;;19.90;102044.00;;;;2229601;26;20254;-57
2024/04/12 01:10:38;;;;;;;2.63;0.87;;;;;20.00;102037.00;;;;2222661;26;20477;-58
2024/04/12 01:11:38;;;;;;;2.07;0.97;;;;;20.00;102047.00;;;;2211562;26;20947;-58
2024/04/12 01:12:39;;;;;;;1.60;0.70;;;;;20.00;102065.00;;;;2218690;26;20663;-58
2024/04/12 01:13:40;;;;;;;2.37;1.07;;;;;19.90;102040.00;;;;2221310;26;20344;-57
2024/04/12 01:14:42;;;;;;;1.70;0.70;;;;;20.00;101920.00;;;;2232036;26;20238;-54
2024/04/12 01:15:43;;;;;;;2.00;1.00;;;;;20.00;102046.00;;;;2218338;26;20259;-58
2024/04/12 01:16:43;;;;;;;1.92;0.85;;;;;20.00;102041.00;;;;2209357;26;20356;-57
2024/04/12 01:17:44;;;;;;;2.93;1.00;;;;;20.00;102047.00;;;;2218759;26;20325;-54
2024/04/12 01:18:45;;;;;;;1.60;0.60;;;;;20.00;102039.00;;;;2225400;26;20289;-60
2024/04/12 01:19:46;;;;;;;2.20;1.13;;;;;20.00;102047.00;;;;2219910;26;20290;-56
2024/04/12 01:20:46;;;;;;;1.60;0.77;;;;;20.00;101964.00;;;;2227810;26;20258;-54
2024/04/12 01:21:47;;;;;;;2.07;0.80;;;;;20.00;102035.00;;;;2225784;26;20896;-58
2024/04/12 01:22:48;;;;;;;2.03;0.60;;;;;20.00;102032.00;;;;2217639;26;20647;-56
2024/04/12 01:23:53;;;;;;;2.10;0.90;;;;;20.00;102035.00;;;;2228384;26;20341;-58
2024/04/12 01:24:54;;;;;;;1.52;0.70;;;;;19.90;102033.00;;;;2221921;26;20325;-55
2024/04/12 01:25:56;;;;;;;1.80;1.00;;;;;20.00;102036.00;;;;2219847;26;20254;-56
2024/04/12 01:26:58;;;;;;;1.80;0.82;;;;;20.00;102033.00;;;;2222707;26;20365;-57
2024/04/12 01:27:58;;;;;;;2.90;0.90;;;;;20.00;102026.00;;;;2218745;26;20247;-57
2024/04/12 01:28:58;;;;;;;1.67;0.73;;;;;20.00;102029.00;;;;2218135;26;20247;-57
2024/04/12 01:30:00;;;;;;;2.00;0.60;;;;;19.90;102029.00;;;;2218774;26;20251;-58
2024/04/12 01:31:01;;;;;;;2.00;0.82;;;;;20.00;102028.00;;;;2213055;26;20254;-57
2024/04/12 01:32:04;;;;;;;1.80;0.90;;;;;20.00;102023.00;;;;2218802;26;20645;-58
2024/04/12 01:33:06;;;;;;;1.70;0.60;;;;;19.90;102020.00;;;;2223190;26;20258;-55
2024/04/12 01:34:13;;;;;;;2.42;0.80;;;;;20.00;102023.00;;;;2233069;26;20250;-57
2024/04/12 01:35:13;;;;;;;1.85;0.80;;;;;19.90;102019.00;;;;2229982;26;20363;-57
2024/04/12 01:36:17;;;;;;;2.00;0.80;;;;;19.90;102018.00;;;;2219859;26;21078;-58
2024/04/12 01:37:20;;;;;;;1.60;0.63;;;;;20.00;102015.00;;;;2225382;26;20717;-57
2024/04/12 01:38:21;;;;;;;1.75;0.75;;;;;19.90;102021.00;;;;2220344;26;20255;-59
2024/04/12 01:39:21;;;;;;;2.07;0.90;;;;;19.90;102018.00;;;;2217512;26;20263;-58
2024/04/12 01:40:25;;;;;;;1.80;0.73;;;;;19.90;102015.00;;;;2229756;26;20246;-58
2024/04/12 01:41:32;;;;;;;2.22;1.05;;;;;19.90;102012.00;;;;2210952;26;20255;-58
2024/04/12 01:42:37;;;;;;;1.65;0.77;;;;;20.00;102011.00;;;;2225788;26;20246;-56
2024/04/12 01:43:38;;;;;;;1.83;0.85;;;;;20.00;102021.00;;;;2231816;26;20575;-58
2024/04/12 01:44:38;;;;;;;2.20;0.87;;;;;19.90;102020.00;;;;2222846;26;20252;-57
2024/04/12 01:45:39;;;;;;;2.53;0.90;;;;;19.90;102011.00;;;;2231164;26;20289;-56
2024/04/12 01:46:39;;;;;;;2.40;0.90;;;;;20.00;102013.00;;;;2221635;26;20250;-56
2024/04/12 01:47:47;;;;;;;2.03;0.90;;;;;20.00;102014.00;;;;2220240;26;20547;-57
2024/04/12 01:48:47;;;;;;;1.83;0.85;;;;;20.00;102015.00;;;;2219047;26;20259;-55
2024/04/12 01:49:48;;;;;;;2.07;0.77;;;;;19.90;102010.00;;;;2224434;26;20871;-57
2024/04/12 01:50:51;;;;;;;1.60;0.80;;;;;19.90;102011.00;;;;2211890;26;21172;-60
2024/04/12 01:51:55;;;;;;;1.77;0.85;;;;;20.00;102011.00;;;;2218773;26;21084;-56
2024/04/12 01:52:57;;;;;;;1.88;0.82;;;;;19.90;102005.00;;;;2215728;26;20389;-59
2024/04/12 01:53:57;;;;;;;1.92;0.70;;;;;20.00;102010.00;;;;2219476;26;20255;-56
2024/04/12 01:55:07;;;;;;;2.03;0.80;;;;;19.90;102012.00;;;;2227029;26;20250;-59
2024/04/12 01:56:13;;;;;;;1.92;0.73;;;;;19.90;102005.00;;;;2215028;26;20307;-58
2024/04/12 01:57:15;;;;;;;1.98;0.77;;;;;19.90;102006.00;;;;2220965;26;20337;-55
2024/04/12 01:58:19;;;;;;;1.52;0.68;;;;;20.00;102006.00;;;;2218612;26;20295;-55
2024/04/12 01:59:23;;;;;;;1.85;0.68;;;;;19.90;102011.00;;;;2223225;26;20284;-58
2024/04/12 02:00:24;;;;;;;2.88;0.90;;;;;19.90;102010.00;;;;2224090;26;20255;-58
2024/04/12 02:01:26;;;;;;;2.37;1.00;;;;;19.90;102012.00;;;;2213982;26;20322;-56
2024/04/12 02:02:27;;;;;;;1.80;0.80;;;;;20.00;102015.00;;;;2221271;26;20537;-55
2024/04/12 02:03:29;;;;;;;2.10;0.90;;;;;20.00;102020.00;;;;2227671;26;20595;-58
2024/04/12 02:04:34;;;;;;;1.92;0.82;;;;;19.90;102016.00;;;;2228963;26;20749;-56
2024/04/12 02:05:34;;;;;;;1.88;0.93;;;;;20.00;102017.00;;;;2221395;26;20255;-58
2024/04/12 02:06:42;;;;;;;2.10;0.87;;;;;19.90;102009.00;;;;2217059;26;21039;-57
2024/04/12 02:07:44;;;;;;;1.80;0.90;;;;;20.00;102022.00;;;;2217321;26;20290;-57
2024/04/12 02:08:44;;;;;;;2.10;0.85;;;;;19.90;102010.00;;;;2228933;26;20301;-55
2024/04/12 02:09:48;;;;;;;1.90;0.80;;;;;20.00;102014.00;;;;2217911;26;20252;-57
2024/04/12 02:10:48;;;;;;;1.80;0.68;;;;;19.90;102015.00;;;;2208787;26;20297;-57
2024/04/12 02:11:53;;;;;;;1.97;0.70;;;;;20.00;102017.00;;;;2226242;26;20296;-62
2024/04/12 02:12:54;;;;;;;2.00;0.80;;;;;19.50;102007.00;;;;2218443;26;20999;-57
2024/04/12 02:13:54;;;;;;;1.60;0.67;;;;;19.90;102007.00;;;;2220450;26;20286;-55
2024/04/12 02:14:59;;;;;;;1.87;0.80;;;;;19.90;102010.00;;;;2218549;26;20940;-55
2024/04/12 02:16:01;;;;;;;2.22;1.00;;;;;20.00;102007.00;;;;2209504;26;20310;-57
2024/04/12 02:17:02;;;;;;;2.15;0.90;;;;;19.90;102010.00;;;;2221108;26;20263;-58
2024/04/12 02:18:03;;;;;;;1.90;0.70;;;;;19.90;102015.00;;;;2217722;26;20247;-56
2024/04/12 02:19:06;;;;;;;2.20;0.87;;;;;19.90;102002.00;;;;2216314;26;20794;-56
2024/04/12 02:20:10;;;;;;;1.50;0.60;;;;;19.90;102000.00;;;;2218430;26;20326;-55
2024/04/12 02:21:10;;;;;;;2.15;0.98;;;;;19.90;101994.00;;;;2204827;26;20409;-59
2024/04/12 02:22:10;;;;;;;1.93;0.90;;;;;19.90;102001.00;;;;2231269;26;20285;-59
2024/04/12 02:23:14;;;;;;;1.80;0.70;;;;;19.90;101997.00;;;;2224063;26;20255;-56
2024/04/12 02:24:17;;;;;;;2.25;0.77;;;;;19.90;101991.00;;;;2218115;26;20251;-58
2024/04/12 02:25:17;;;;;;;2.55;0.80;;;;;19.90;101994.00;;;;2222683;26;20913;-57
2024/04/12 02:26:18;;;;;;;2.63;1.00;;;;;19.90;102000.00;;;;2221449;26;20330;-57
2024/04/12 02:27:18;;;;;;;1.80;0.80;;;;;19.90;101995.00;;;;2232157;26;20726;-57
2024/04/12 02:28:18;;;;;;;2.40;0.90;;;;;19.90;101990.00;;;;2223311;26;20251;-57
2024/04/12 02:29:21;;;;;;;1.67;0.63;;;;;19.90;101985.00;;;;2219892;26;20254;-58
2024/04/12 02:30:24;;;;;;;2.88;0.98;;;;;19.90;101981.00;;;;2220037;26;20755;-58
2024/04/12 02:31:25;;;;;;;3.40;1.20;;;;;19.90;101980.00;;;;2219747;26;20335;-59
2024/04/12 02:32:25;;;;;;;2.20;0.87;;;;;19.90;101977.00;;;;2230685;26;20719;-55
2024/04/12 02:33:30;;;;;;;1.60;0.60;;;;;19.90;101971.00;;;;2232597;26;20291;-57
2024/04/12 02:34:30;;;;;;;1.80;0.82;;;;;19.90;101985.00;;;;2221303;26;20259;-58
2024/04/12 02:35:31;;;;;;;1.90;0.80;;;;;19.90;101980.00;;;;2229745;26;20259;-58
2024/04/12 02:36:31;;;;;;;2.93;0.87;;;;;19.90;101987.00;;;;2222076;26;20661;-59
2024/04/12 02:37:34;;;;;;;2.20;0.83;;;;;19.90;101978.00;;;;2225390;26;20352;-56
2024/04/12 02:38:36;;;;;;;1.75;0.80;;;;;20.00;101977.00;;;;2204498;26;20810;-57
2024/04/12 02:39:41;;;;;;;2.03;0.88;;;;;20.00;101984.00;;;;2208152;26;20295;-57
2024/04/12 02:40:42;;;;;;;1.60;0.70;;;;;19.90;102031.00;;;;2219537;26;20290;-58
2024/04/12 02:41:42;;;;;;;2.50;0.77;;;;;19.90;101987.00;;;;2206925;26;20305;-56
2024/04/12 02:42:43;;;;;;;1.93;0.90;;;;;19.90;101987.00;;;;2228393;26;20304;-58
2024/04/12 02:43:51;;;;;;;2.10;0.90;;;;;19.90;101988.00;;;;2219505;26;20248;-56
2024/04/12 02:44:52;;;;;;;2.05;0.77;;;;;19.90;101997.00;;;;2228101;26;20249;-55
2024/04/12 02:45:53;;;;;;;1.60;0.83;;;;;19.90;101997.00;;;;2207191;26;20695;-55
2024/04/12 02:46:54;;;;;;;1.98;0.90;;;;;19.90;101988.00;;;;2216273;26;20325;-59
2024/04/12 02:47:54;;;;;;;2.10;0.70;;;;;19.90;101989.00;;;;2222334;26;20267;-56
2024/04/12 02:48:55;;;;;;;1.87;0.87;;;;;19.90;101996.00;;;;2214913;26;20356;-58
2024/04/12 02:49:57;;;;;;;1.60;0.80;;;;;19.90;101989.00;;;;2231723;26;20532;-57
2024/04/12 02:51:03;;;;;;;2.13;0.70;;;;;19.90;101987.00;;;;2215696;26;20252;-58
2024/04/12 02:52:03;;;;;;;1.73;0.70;;;;;19.90;101984.00;;;;2226050;26;20255;-58
2024/04/12 02:53:03;;;;;;;1.97;0.80;;;;;19.90;101986.00;;;;2217305;26;20780;-57
2024/04/12 02:54:04;;;;;;;2.00;0.93;;;;;19.90;101989.00;;;;2221308;26;20298;-56
2024/04/12 02:55:12;;;;;;;1.67;0.63;;;;;20.00;101989.00;;;;2229315;26;20293;-55
2024/04/12 02:56:13;;;;;;;2.38;0.90;;;;;20.00;101991.00;;;;2210335;26;20487;-56
2024/04/12 02:57:14;;;;;;;1.63;0.80;;;;;19.90;101979.00;;;;2227156;26;20780;-59
2024/04/12 02:58:14;;;;;;;2.80;0.90;;;;;19.90;101980.00;;;;2218511;26;20368;-59
2024/04/12 02:59:14;;;;;;;1.90;0.93;;;;;19.90;101979.00;;;;2225640;26;20296;-58
2024/04/12 03:00:25;;;;;;;2.67;1.03;;;;;19.90;101975.00;;;;2226285;26;20259;-56
2024/04/12 03:01:26;;;;;;;1.88;0.93;;;;;19.90;101979.00;;;;2205864;26;20306;-58
2024/04/12 03:02:26;;;;;;;2.13;0.90;;;;;19.90;101991.00;;;;2217054;26;20302;-56
2024/04/12 03:03:27;;;;;;;1.90;0.80;;;;;19.90;101987.00;;;;2223905;26;20680;-57
2024/04/12 03:04:27;;;;;;;3.77;0.93;;;;;19.90;101983.00;;;;2218353;26;20259;-55
2024/04/12 03:05:28;;;;;;;2.00;0.80;;;;;19.90;101991.00;;;;2221119;26;20259;-58
2024/04/12 03:06:31;;;;;;;1.90;0.87;;;;;19.90;102002.00;;;;2217602;26;20254;-58
2024/04/12 03:07:33;;;;;;;1.60;0.60;;;;;19.90;102001.00;;;;2220181;26;20601;-57
2024/04/12 03:08:35;;;;;;;1.80;0.80;;;;;20.00;102010.00;;;;2225463;26;20347;-57
2024/04/12 03:09:40;;;;;;;1.77;0.90;;;;;19.90;102002.00;;;;2221549;26;20259;-56
2024/04/12 03:10:45;;;;;;;2.00;0.77;;;;;19.90;102003.00;;;;2217257;26;20773;-55
2024/04/12 03:11:45;;;;;;;2.45;0.95;;;;;19.90;101997.00;;;;2215519;26;20296;-55
2024/04/12 03:12:46;;;;;;;2.10;0.80;;;;;19.90;101998.00;;;;2214618;26;20251;-56
2024/04/12 03:13:50;;;;;;;2.10;1.00;;;;;20.00;101999.00;;;;2226828;26;20367;-58
2024/04/12 03:14:54;;;;;;;1.67;0.70;;;;;19.90;101870.00;;;;2218328;26;20308;-57
2024/04/12 03:15:55;;;;;;;1.88;0.73;;;;;19.90;101994.00;;;;2216388;26;20301;-58
2024/04/12 03:16:56;;;;;;;1.80;0.80;;;;;19.90;101996.00;;;;2218430;26;20255;-55
2024/04/12 03:17:56;;;;;;;1.88;0.90;;;;;19.90;102003.00;;;;2218146;26;20286;-59
2024/04/12 03:18:57;;;;;;;2.40;0.90;;;;;19.90;101997.00;;;;2217336;26;21205;-62
2024/04/12 03:19:58;;;;;;;2.22;0.70;;;;;19.90;102006.00;;;;2217972;26;20307;-56
2024/04/12 03:20:59;;;;;;;2.13;0.80;;;;;19.90;102006.00;;;;2221176;26;21178;-56
2024/04/12 03:21:59;;;;;;;1.70;0.70;;;;;20.00;102004.00;;;;2222652;26;20251;-57
2024/04/12 03:23:03;;;;;;;2.00;0.80;;;;;19.90;102012.00;;;;2226671;26;20250;-56
2024/04/12 03:24:09;;;;;;;1.98;0.77;;;;;19.90;102009.00;;;;2218319;26;20252;-57
2024/04/12 03:25:09;;;;;;;1.90;0.88;;;;;19.90;102000.00;;;;2221315;26;20300;-57
2024/04/12 03:26:11;;;;;;;1.73;0.70;;;;;19.90;102002.00;;;;2207656;26;20251;-58
2024/04/12 03:27:11;;;;;;;2.15;0.80;;;;;19.90;102003.00;;;;2228036;26;20266;-56
2024/04/12 03:28:11;;;;;;;1.80;0.77;;;;;19.90;102003.00;;;;2218141;26;20262;-58
2024/04/12 03:29:12;;;;;;;1.90;0.77;;;;;19.90;102000.00;;;;2217855;26;20344;-57
2024/04/12 03:30:15;;;;;;;1.70;0.70;;;;;19.90;102008.00;;;;2225080;26;20347;-57
2024/04/12 03:31:17;;;;;;;1.55;0.70;;;;;19.90;102004.00;;;;2216687;26;20259;-58
2024/04/12 03:32:19;;;;;;;1.88;0.80;;;;;19.90;102001.00;;;;2220849;26;20277;-58
2024/04/12 03:33:19;;;;;;;1.70;0.70;;;;;19.90;101995.00;;;;2222482;26;20285;-57
2024/04/12 03:34:19;;;;;;;1.80;0.80;;;;;19.90;101999.00;;;;2218634;26;20582;-57
2024/04/12 03:35:20;;;;;;;2.20;0.70;;;;;19.90;102006.00;;;;2224056;26;20992;-57
2024/04/12 03:36:28;;;;;;;1.80;0.80;;;;;19.90;102003.00;;;;2215409;26;20289;-58
2024/04/12 03:37:38;;;;;;;2.22;1.00;;;;;19.90;102004.00;;;;2229071;26;20266;-59
2024/04/12 03:38:38;;;;;;;2.75;0.80;;;;;19.90;102001.00;;;;2229099;26;20301;-57
2024/04/12 03:39:38;;;;;;;1.90;0.80;;;;;19.90;101991.00;;;;2227074;26;20292;-58
2024/04/12 03:40:45;;;;;;;2.10;0.70;;;;;19.90;102005.00;;;;2221837;26;20311;-56
2024/04/12 03:41:46;;;;;;;2.30;0.85;;;;;19.90;101999.00;;;;2206875;26;20308;-58
2024/04/12 03:42:47;;;;;;;1.88;0.65;;;;;19.50;101996.00;;;;2223837;26;20680;-55
2024/04/12 03:43:47;;;;;;;2.03;0.73;;;;;19.90;101997.00;;;;2230182;26;20258;-55
2024/04/12 03:44:48;;;;;;;2.03;0.70;;;;;19.90;101994.00;;;;2217439;26;20255;-56
2024/04/12 03:45:58;;;;;;;1.88;0.80;;;;;19.90;101998.00;;;;2210413;26;20267;-58
2024/04/12 03:47:01;;;;;;;1.83;0.70;;;;;19.90;101994.00;;;;2218134;26;20266;-60
2024/04/12 03:48:05;;;;;;;3.05;1.20;;;;;19.90;101987.00;;;;2220969;26;20259;-57
2024/04/12 03:49:05;;;;;;;1.80;0.68;;;;;19.90;101993.00;;;;2220867;26;20284;-58
2024/04/12 03:50:13;;;;;;;1.70;0.70;;;;;19.90;101991.00;;;;2230029;26;20281;-55
2024/04/12 03:51:13;;;;;;;1.80;0.80;;;;;19.90;101987.00;;;;2206550;26;20255;-57
2024/04/12 03:52:14;;;;;;;1.97;0.80;;;;;19.90;101994.00;;;;2218162;26;20251;-55
2024/04/12 03:53:14;;;;;;;1.70;0.67;;;;;19.90;101995.00;;;;2217955;26;20799;-55
2024/04/12 03:54:18;;;;;;;2.00;1.03;;;;;19.90;101993.00;;;;2218099;26;20255;-55
2024/04/12 03:55:18;;;;;;;1.63;0.60;;;;;19.90;101997.00;;;;2218319;26;20274;-55
2024/04/12 03:56:18;;;;;;;1.70;0.60;;;;;19.90;101990.00;;;;2207920;26;20278;-58
2024/04/12 03:57:26;;;;;;;2.27;0.77;;;;;19.90;102028.00;;;;2222890;26;20262;-60
2024/04/12 03:58:29;;;;;;;2.00;0.90;;;;;19.90;101992.00;;;;2225049;26;20311;-58
2024/04/12 03:59:30;;;;;;;2.80;0.65;;;;;19.90;101990.00;;;;2225353;26;20288;-55
2024/04/12 04:00:38;;;;;;;2.40;0.70;;;;;19.90;101991.00;;;;2221594;26;20277;-56
2024/04/12 04:01:44;;;;;;;2.05;0.80;;;;;19.90;101992.00;;;;2210065;26;20255;-56
2024/04/12 04:02:48;;;;;;;1.60;0.60;;;;;19.90;102013.00;;;;2229229;26;20285;-57
2024/04/12 04:03:49;;;;;;;1.92;1.02;;;;;19.90;101994.00;;;;2218856;26;20259;-55
2024/04/12 04:04:49;;;;;;;1.80;0.90;;;;;19.90;101990.00;;;;2219272;26;20693;-57
2024/04/12 04:05:53;;;;;;;2.17;0.70;;;;;19.90;101991.00;;;;2216505;26;20258;-57
2024/04/12 04:06:57;;;;;;;1.60;0.73;;;;;19.90;101993.00;;;;2228106;26;20239;-58
2024/04/12 04:08:00;;;;;;;3.03;0.90;;;;;19.90;101992.00;;;;2230305;26;20357;-55
2024/04/12 04:09:05;;;;;;;2.03;1.00;;;;;19.90;101985.00;;;;2228015;26;20936;-55
2024/04/12 04:10:10;;;;;;;1.50;0.68;;;;;19.90;101982.00;;;;2219960;26;20246;-57
2024/04/12 04:11:11;;;;;;;1.70;0.80;;;;;19.90;101990.00;;;;2217427;26;20296;-56
2024/04/12 04:12:17;;;;;;;1.70;0.70;;;;;19.90;101990.00;;;;2222263;26;20251;-58
2024/04/12 04:13:17;;;;;;;2.00;0.75;;;;;19.90;101987.00;;;;2227569;26;20309;-56
2024/04/12 04:14:19;;;;;;;1.60;0.70;;;;;19.90;101994.00;;;;2219568;26;20251;-59
2024/04/12 04:15:25;;;;;;;1.50;0.60;;;;;19.90;101985.00;;;;2221917;26;20317;-58
2024/04/12 04:16:36;;;;;;;1.42;0.60;;;;;19.90;102000.00;;;;2217445;26;20263;-56
2024/04/12 04:17:36;;;;;;;1.60;0.75;;;;;19.90;101990.00;;;;2223994;26;20259;-58
2024/04/12 04:18:36;;;;;;;2.27;0.70;;;;;19.90;101996.00;;;;2220118;26;20259;-56
2024/04/12 04:19:39;;;;;;;2.30;1.00;;;;;19.90;101993.00;;;;2218217;26;20360;-56
2024/04/12 04:20:40;;;;;;;1.80;0.80;;;;;19.90;101995.00;;;;2219348;26;20247;-56
2024/04/12 04:21:41;;;;;;;2.13;0.90;;;;;19.90;101997.00;;;;2213847;26;20246;-56
2024/04/12 04:22:41;;;;;;;2.38;0.90;;;;;19.90;101999.00;;;;2222267;26;20255;-57
2024/04/12 04:23:42;;;;;;;1.80;0.70;;;;;19.90;101890.00;;;;2229646;26;20583;-57
2024/04/12 04:24:42;;;;;;;2.20;0.80;;;;;19.90;101996.00;;;;2228844;26;21227;-55
2024/04/12 04:25:44;;;;;;;1.60;0.70;;;;;19.90;101994.00;;;;2221525;26;21201;-57
2024/04/12 04:26:44;;;;;;;2.10;0.80;;;;;19.90;101998.00;;;;2208781;26;20708;-57
2024/04/12 04:27:44;;;;;;;2.27;0.90;;;;;19.90;101992.00;;;;2218011;26;20398;-57
2024/04/12 04:28:45;;;;;;;1.93;0.97;;;;;19.90;101995.00;;;;2230374;26;20301;-57
2024/04/12 04:29:45;;;;;;;2.50;1.00;;;;;19.90;101997.00;;;;2223074;26;20307;-58
2024/04/12 04:30:45;;;;;;;1.93;0.70;;;;;19.90;101996.00;;;;2218340;26;20251;-56
2024/04/12 04:31:50;;;;;;;1.80;0.77;;;;;19.90;101857.00;;;;2206537;26;20317;-55
2024/04/12 04:32:50;;;;;;;1.70;0.70;;;;;19.90;102000.00;;;;2226593;26;20258;-57
2024/04/12 04:33:51;;;;;;;2.20;1.00;;;;;19.90;101992.00;;;;2227345;26;20258;-56
2024/04/12 04:35:08;;;;;;;1.87;0.80;;;;;19.90;101999.00;;;;2219472;26;20256;-58
2024/04/12 04:36:09;;;;;;;1.70;0.77;;;;;19.90;102000.00;;;;2210916;26;20846;-58
2024/04/12 04:37:09;;;;;;;2.00;1.00;;;;;19.90;101990.00;;;;2231386;26;20297;-57
2024/04/12 04:38:09;;;;;;;1.87;0.83;;;;;19.90;101992.00;;;;2228075;26;20643;-56
2024/04/12 04:39:15;;;;;;;1.80;0.70;;;;;19.90;102013.00;;;;2221328;26;21006;-59
2024/04/12 04:40:18;;;;;;;2.08;0.60;;;;;19.90;101986.00;;;;2222239;26;20373;-56
2024/04/12 04:41:19;;;;;;;1.77;0.70;;;;;19.90;102014.00;;;;2214582;26;20255;-56
2024/04/12 04:42:23;;;;;;;1.80;0.65;;;;;19.90;101995.00;;;;2218191;26;20294;-57
2024/04/12 04:43:24;;;;;;;1.90;0.70;;;;;19.90;101987.00;;;;2219328;26;20317;-59
2024/04/12 04:44:24;;;;;;;2.90;0.90;;;;;19.90;101988.00;;;;2219665;26;20865;-55
2024/04/12 04:45:31;;;;;;;1.90;0.73;;;;;19.90;101987.00;;;;2224758;26;20530;-55
2024/04/12 04:46:32;;;;;;;1.85;0.60;;;;;19.90;101990.00;;;;2211247;26;20328;-57
2024/04/12 04:47:34;;;;;;;1.97;0.80;;;;;19.90;101986.00;;;;2225504;26;20258;-57
2024/04/12 04:48:35;;;;;;;3.13;0.80;;;;;19.90;101989.00;;;;2230838;26;20511;-57
2024/04/12 04:49:35;;;;;;;2.10;0.75;;;;;19.90;101991.00;;;;2222863;26;20301;-58
2024/04/12 04:50:36;;;;;;;1.73;0.70;;;;;19.90;101985.00;;;;2218761;26;20251;-57
2024/04/12 04:51:36;;;;;;;1.80;0.70;;;;;19.90;101983.00;;;;2212527;26;20762;-58
2024/04/12 04:52:37;;;;;;;1.87;0.73;;;;;19.90;101990.00;;;;2218474;26;20251;-56
2024/04/12 04:53:37;;;;;;;2.50;0.87;;;;;19.90;101987.00;;;;2227390;26;20250;-58
2024/04/12 04:54:39;;;;;;;1.90;0.90;;;;;19.90;101978.00;;;;2221561;26;20289;-57
2024/04/12 04:55:44;;;;;;;1.80;0.80;;;;;19.90;101981.00;;;;2217757;26;20315;-57
2024/04/12 04:56:44;;;;;;;1.70;0.60;;;;;19.90;101986.00;;;;2208711;26;20310;-57
2024/04/12 04:57:47;;;;;;;3.33;1.00;;;;;19.90;101982.00;;;;2227880;26;20258;-59
2024/04/12 04:58:47;;;;;;;1.77;0.70;;;;;19.90;101987.00;;;;2219994;26;20755;-56
2024/04/12 04:59:48;;;;;;;1.93;0.80;;;;;19.70;101988.00;;;;2228644;26;20250;-58
2024/04/12 05:00:52;;;;;;;1.70;0.80;;;;;19.90;101988.00;;;;2211821;26;20326;-60
2024/04/12 05:01:52;;;;;;;1.98;0.77;;;;;19.90;101995.00;;;;2240524;26;20245;-59
2024/04/12 05:02:53;;;;;;;2.13;0.70;;;;;19.90;102001.00;;;;2241997;26;20307;-58
2024/04/12 05:03:56;;;;;;;2.00;1.00;;;;;19.90;101997.00;;;;2221590;26;20301;-55
2024/04/12 05:04:57;;;;;;;1.75;0.63;;;;;19.90;102014.00;;;;2229410;26;20367;-55
2024/04/12 05:05:57;;;;;;;3.17;0.80;;;;;19.90;102013.00;;;;2208775;26;21085;-57
2024/04/12 05:06:58;;;;;;;1.80;0.70;;;;;19.90;102002.00;;;;2219122;26;20305;-58
2024/04/12 05:07:59;;;;;;;1.60;0.70;;;;;19.90;102000.00;;;;2218973;26;20301;-57